Time;durP1;ratioP1;P1;durP2;ratioP2;P2;SDS_P1;SDS_P2;PMS_P1;PMS_P2;Temp;Humidity;BMP_temperature;BMP_pressure;BME280_temperature;BME280_humidity;BME280_pressure;Samples;Min_cycle;Max_cycle;Signal;HPM_P1;HPM_P2
2022/10/01 00:01:02;;;;;;;13.88;12.53;;;;;;;18.75;100.00;99522.45;1770966;78;21490;-59
2022/10/01 00:03:29;;;;;;;17.50;12.23;;;;;;;18.75;100.00;99519.79;1768550;78;21732;-58
2022/10/01 00:06:08;;;;;;;17.85;12.60;;;;;;;18.71;100.00;99517.84;1762322;79;21451;-58
2022/10/01 00:08:36;;;;;;;12.45;10.85;;;;;;;18.68;100.00;99518.95;1770713;80;20983;-59
2022/10/01 00:11:12;;;;;;;13.28;10.55;;;;;;;18.66;100.00;99513.36;1764781;80;21664;-59
2022/10/01 00:13:41;;;;;;;11.88;10.43;;;;;;;18.64;100.00;99515.30;1770064;78;21546;-59
2022/10/01 00:16:11;;;;;;;13.08;11.48;;;;;;;18.64;100.00;99512.14;1760419;80;21832;-58
2022/10/01 00:18:40;;;;;;;13.32;10.55;;;;;;;18.63;100.00;99512.29;1762503;80;21622;-58
2022/10/01 00:21:10;;;;;;;13.10;10.75;;;;;;;18.61;100.00;99513.73;1769742;80;20998;-59
2022/10/01 00:23:37;;;;;;;12.55;10.60;;;;;;;18.55;100.00;99512.86;1765393;80;21415;-58
2022/10/01 00:26:17;;;;;;;14.23;10.13;;;;;;;18.53;100.00;99515.29;1763534;79;21582;-58
2022/10/01 00:28:46;;;;;;;11.43;10.32;;;;;;;18.48;100.00;99509.00;1763122;80;21997;-58
2022/10/01 00:31:14;;;;;;;10.78;9.68;;;;;;;18.38;100.00;99501.35;1767935;78;21550;-58
2022/10/01 00:35:02;;;;;;;11.05;9.93;;;;;;;17.73;100.00;99523.52;1801142;78;22752;-59
2022/10/01 00:37:31;;;;;;;12.73;10.30;;;;;;;18.17;100.00;99512.68;1767117;80;21565;-60
2022/10/01 00:39:57;;;;;;;10.80;9.77;;;;;;;18.16;100.00;99515.45;1740711;81;21900;-59
2022/10/01 00:42:25;;;;;;;12.13;10.58;;;;;;;18.14;100.00;99512.94;1695858;83;21585;-59
2022/10/01 00:44:52;;;;;;;11.22;9.33;;;;;;;18.16;100.00;99512.33;1720767;81;21506;-59
2022/10/01 00:47:33;;;;;;;10.78;9.30;;;;;;;18.09;100.00;99517.27;1683428;84;21533;-59
2022/10/01 00:50:25;;;;;;;9.75;8.85;;;;;;;18.05;100.00;99518.95;1732855;81;21451;-57
2022/10/01 00:52:59;;;;;;;10.08;8.20;;;;;;;18.00;100.00;99517.95;1723232;81;21419;-58
2022/10/01 00:55:29;;;;;;;9.15;8.25;;;;;;;17.96;100.00;99520.48;1729533;81;21057;-59
2022/10/01 00:57:56;;;;;;;9.68;7.47;;;;;;;17.92;100.00;99517.70;1709196;83;21526;-59
2022/10/01 01:00:24;;;;;;;8.90;7.53;;;;;;;17.92;100.00;99519.52;1725064;81;21539;-59
2022/10/01 01:02:52;;;;;;;8.38;7.47;;;;;;;17.89;100.00;99517.91;1706966;83;21446;-59
2022/10/01 01:05:19;;;;;;;9.10;7.67;;;;;;;17.88;100.00;99514.91;1698335;83;21567;-59
2022/10/01 01:07:47;;;;;;;11.78;8.03;;;;;;;17.86;100.00;99511.03;1712343;83;21559;-60
2022/10/01 01:10:15;;;;;;;7.70;6.90;;;;;;;17.83;100.00;99513.03;1705152;83;21012;-59
2022/10/01 01:12:54;;;;;;;10.70;7.47;;;;;;;17.83;100.00;99509.88;1715850;82;21496;-59
2022/10/01 01:15:35;;;;;;;7.62;6.92;;;;;;;17.83;100.00;99510.38;1717057;81;21585;-60
2022/10/01 01:18:22;;;;;;;8.13;7.37;;;;;;;17.82;100.00;99511.32;1706840;83;21819;-58
2022/10/01 01:21:14;;;;;;;8.88;7.05;;;;;;;17.75;100.00;99498.98;1705664;83;21583;-60
2022/10/01 01:24:10;;;;;;;8.25;6.87;;;;;;;17.79;100.00;99504.44;1706476;83;21475;-59
2022/10/01 01:27:15;;;;;;;6.97;6.37;;;;;;;17.77;100.00;99501.05;1700515;83;21454;-58
2022/10/01 01:30:05;;;;;;;8.60;7.03;;;;;;;17.78;100.00;99501.88;1711501;83;21463;-59
2022/10/01 01:32:56;;;;;;;7.35;6.53;;;;;;;17.71;100.00;99504.17;1702451;83;21958;-58
2022/10/01 01:35:33;;;;;;;9.75;7.05;;;;;;;17.70;100.00;99509.11;1696957;83;21544;-59
2022/10/01 01:38:05;;;;;;;7.12;6.60;;;;;;;17.68;100.00;99523.00;1705543;83;21549;-58
2022/10/01 01:40:35;;;;;;;7.37;6.62;;;;;;;17.66;100.00;99519.61;1718597;81;21007;-59
2022/10/01 01:43:04;;;;;;;6.70;6.10;;;;;;;17.64;100.00;99510.91;1714758;81;21503;-59
2022/10/01 01:45:30;;;;;;;5.85;5.30;;;;;;;17.61;100.00;99517.77;1682855;83;21771;-59
2022/10/01 01:47:57;;;;;;;8.45;5.70;;;;;;;17.58;100.00;99514.86;1722946;81;21580;-59
2022/10/01 01:50:24;;;;;;;6.62;5.95;;;;;;;17.59;100.00;99519.20;1695276;83;21497;-59
2022/10/01 01:52:52;;;;;;;8.18;6.08;;;;;;;17.58;100.00;99522.84;1705348;83;21436;-59
2022/10/01 01:55:23;;;;;;;6.62;5.83;;;;;;;17.57;100.00;99520.29;1707735;83;21553;-59
2022/10/01 01:57:50;;;;;;;6.25;5.05;;;;;;;17.57;100.00;99526.45;1706316;83;21940;-58
2022/10/01 02:00:16;;;;;;;6.87;5.20;;;;;;;17.54;100.00;99530.67;1711344;83;21516;-58
2022/10/01 02:02:48;;;;;;;6.90;5.10;;;;;;;17.53;100.00;99528.97;1709777;83;21518;-58
2022/10/01 02:05:18;;;;;;;6.28;5.72;;;;;;;17.51;100.00;99526.91;1730746;81;22219;-59
2022/10/01 02:08:25;;;;;;;5.78;5.28;;;;;;;17.45;100.00;99524.22;1704924;82;21061;-59
2022/10/01 02:11:19;;;;;;;5.72;5.17;;;;;;;17.41;100.00;99531.21;1711541;82;21912;-58
2022/10/01 02:13:58;;;;;;;5.87;4.80;;;;;;;17.39;100.00;99539.29;1702003;82;21479;-59
2022/10/01 02:16:58;;;;;;;7.25;4.70;;;;;;;17.36;100.00;99545.30;1706110;82;21504;-58
2022/10/01 02:19:54;;;;;;;5.30;4.80;;;;;;;17.34;100.00;99540.09;1705654;82;21485;-58
2022/10/01 02:22:26;;;;;;;6.17;4.43;;;;;;;17.31;100.00;99539.01;1711210;82;21593;-58
2022/10/01 02:24:57;;;;;;;5.22;4.47;;;;;;;17.29;100.00;99531.14;1704930;82;21895;-59
2022/10/01 02:27:43;;;;;;;5.08;4.47;;;;;;;17.31;100.00;99537.68;1704522;82;21566;-58
2022/10/01 02:30:10;;;;;;;4.20;3.80;;;;;;;17.32;100.00;99542.02;1710331;82;21595;-58
2022/10/01 02:32:39;;;;;;;4.42;4.03;;;;;;;17.30;100.00;99550.58;1738907;81;26955;-59
2022/10/01 02:35:09;;;;;;;4.75;4.33;;;;;;;17.27;100.00;99547.68;1686660;83;21068;-59
2022/10/01 02:37:37;;;;;;;4.55;4.05;;;;;;;17.28;100.00;99547.19;1674623;84;21765;-59
2022/10/01 02:40:06;;;;;;;5.47;4.25;;;;;;;17.25;100.00;99547.40;1746381;81;21568;-59
2022/10/01 02:42:34;;;;;;;6.65;5.15;;;;;;;17.22;100.00;99544.49;1742471;81;20994;-59
2022/10/01 02:45:01;;;;;;;6.70;5.10;;;;;;;17.20;100.00;99546.42;1748202;81;21562;-60
2022/10/01 02:47:43;;;;;;;5.22;4.72;;;;;;;17.19;100.00;99547.84;1748515;81;21534;-59
2022/10/01 02:50:10;;;;;;;4.95;4.45;;;;;;;17.18;100.00;99544.35;1744713;81;21803;-60
2022/10/01 02:53:03;;;;;;;5.20;4.55;;;;;;;17.14;100.00;99540.22;1739715;82;21509;-58
2022/10/01 02:55:33;;;;;;;7.12;4.53;;;;;;;17.08;100.00;99537.98;1747839;80;20990;-59
2022/10/01 02:58:00;;;;;;;4.50;4.10;;;;;;;17.03;100.00;99544.97;1742674;81;21547;-59
2022/10/01 03:00:27;;;;;;;4.70;4.30;;;;;;;17.02;100.00;99546.39;1716073;82;21045;-59
2022/10/01 03:02:54;;;;;;;5.08;4.28;;;;;;;17.03;100.00;99557.41;1701469;83;22023;-59
2022/10/01 03:05:21;;;;;;;7.78;4.37;;;;;;;17.02;100.00;99556.53;1743665;81;21448;-59
2022/10/01 03:07:47;;;;;;;5.15;4.65;;;;;;;16.99;100.00;99555.90;1746000;81;21017;-58
2022/10/01 03:10:15;;;;;;;5.15;4.22;;;;;;;16.99;100.00;99559.42;1729294;81;21498;-58
2022/10/01 03:12:45;;;;;;;4.87;3.95;;;;;;;16.98;100.00;99560.86;1743392;81;21439;-59
2022/10/01 03:15:13;;;;;;;5.75;4.25;;;;;;;16.96;100.00;99560.95;1738900;81;21809;-58
2022/10/01 03:17:39;;;;;;;6.30;4.15;;;;;;;16.93;100.00;99558.05;1742848;81;21455;-58
2022/10/01 03:20:07;;;;;;;5.15;4.65;;;;;;;16.95;100.00;99565.05;1742815;81;21580;-59
2022/10/01 03:22:34;;;;;;;6.87;4.10;;;;;;;16.92;100.00;99570.11;1744146;81;21478;-60
2022/10/01 03:25:01;;;;;;;4.35;3.95;;;;;;;16.91;100.00;99574.58;1749886;81;21613;-59
2022/10/01 03:27:29;;;;;;;5.30;4.15;;;;;;;16.86;100.00;99575.37;1744210;81;21038;-59
2022/10/01 03:29:55;;;;;;;4.55;4.15;;;;;;;16.85;100.00;99569.67;1742586;81;21614;-59
2022/10/01 03:32:23;;;;;;;4.78;4.30;;;;;;;16.87;100.00;99562.44;1737628;81;21635;-59
2022/10/01 03:34:50;;;;;;;4.42;3.77;;;;;;;16.86;100.00;99560.77;1744664;80;21487;-59
2022/10/01 03:37:16;;;;;;;5.00;3.60;;;;;;;16.85;100.00;99560.38;1752190;80;21649;-59
2022/10/01 03:39:43;;;;;;;6.60;4.47;;;;;;;16.85;100.00;99562.19;1754819;80;21683;-59
2022/10/01 03:42:10;;;;;;;4.70;4.20;;;;;;;16.82;100.00;99562.36;1735122;80;21487;-59
2022/10/01 03:44:36;;;;;;;5.22;3.95;;;;;;;16.78;100.00;99560.40;1745235;80;21491;-59
2022/10/01 03:47:03;;;;;;;4.83;4.20;;;;;;;16.77;100.00;99568.50;1748289;80;21933;-59
2022/10/01 03:49:31;;;;;;;4.00;3.70;;;;;;;16.76;100.00;99576.91;1740447;80;21572;-60
2022/10/01 03:51:58;;;;;;;4.58;4.17;;;;;;;16.74;100.00;99569.08;1717175;82;26947;-59
2022/10/01 03:54:25;;;;;;;4.97;3.90;;;;;;;16.73;100.00;99565.20;1761154;80;21538;-58
2022/10/01 03:56:51;;;;;;;4.67;4.17;;;;;;;16.74;100.00;99566.43;1748783;80;21452;-59
2022/10/01 03:59:18;;;;;;;4.60;3.95;;;;;;;16.73;100.00;99570.52;1751154;80;21482;-59
2022/10/01 04:01:45;;;;;;;5.70;4.08;;;;;;;16.76;100.00;99572.94;1752651;80;21531;-59
2022/10/01 04:04:13;;;;;;;6.00;3.85;;;;;;;16.69;100.00;99576.51;1749386;80;21521;-59
2022/10/01 04:06:40;;;;;;;;;;;;;;;16.66;100.00;99583.83;1743684;80;21625;-59
2022/10/01 04:09:08;;;;;;;5.35;3.92;;;;;;;16.63;100.00;99574.28;1752970;80;20198;-59
2022/10/01 04:11:35;;;;;;;;;;;;;;;16.62;100.00;99576.55;1754768;80;21478;-59
2022/10/01 04:14:02;;;;;;;5.10;3.95;;;;;;;16.65;100.00;99565.73;1746921;80;20138;-59
2022/10/01 04:16:29;;;;;;;4.75;3.58;;;;;;;16.65;100.00;99564.41;1759032;80;21811;-59
2022/10/01 04:18:57;;;;;;;5.20;3.90;;;;;;;16.69;100.00;99573.86;1751296;80;21483;-59
2022/10/01 04:21:24;;;;;;;5.47;4.17;;;;;;;16.71;100.00;99576.41;1758701;80;21500;-59
2022/10/01 04:23:52;;;;;;;4.35;3.52;;;;;;;16.72;100.00;99577.60;1744704;80;21570;-60
2022/10/01 04:26:18;;;;;;;3.55;3.22;;;;;;;16.73;100.00;99577.15;1751973;80;21460;-59
2022/10/01 04:28:46;;;;;;;4.03;3.70;;;;;;;16.74;100.00;99586.34;1751305;80;21538;-59
2022/10/01 04:31:25;;;;;;;7.00;3.70;;;;;;;16.76;100.00;99584.88;1751334;80;21474;-59
2022/10/01 04:33:55;;;;;;;4.45;4.05;;;;;;;16.72;100.00;99588.22;1746828;80;21535;-59
2022/10/01 04:36:22;;;;;;;4.30;3.90;;;;;;;16.69;100.00;99580.49;1744559;80;20971;-59
2022/10/01 04:38:53;;;;;;;4.67;4.33;;;;;;;16.64;100.00;99588.40;1750769;80;21440;-59
2022/10/01 04:41:20;;;;;;;4.08;3.67;;;;;;;16.61;100.00;99590.77;1750507;80;21892;-59
2022/10/01 04:43:47;;;;;;;4.60;4.10;;;;;;;16.63;100.00;99594.20;1749198;80;21599;-60
2022/10/01 04:46:14;;;;;;;5.00;3.75;;;;;;;16.61;100.00;99582.80;1743735;80;20933;-60
2022/10/01 04:48:41;;;;;;;4.67;4.00;;;;;;;16.62;100.00;99578.37;1755728;80;21503;-59
2022/10/01 04:51:08;;;;;;;6.65;4.20;;;;;;;16.61;100.00;99581.48;1748453;80;27105;-59
2022/10/01 04:53:37;;;;;;;7.05;4.35;;;;;;;16.61;100.00;99585.45;1749235;80;21535;-59
2022/10/01 04:56:05;;;;;;;4.37;3.70;;;;;;;16.60;100.00;99598.38;1753305;80;21514;-59
2022/10/01 04:58:33;;;;;;;4.30;3.90;;;;;;;16.57;100.00;99598.58;1753994;80;20994;-62
2022/10/01 05:00:59;;;;;;;4.55;4.15;;;;;;;16.59;100.00;99599.31;1754097;80;21582;-59
2022/10/01 05:03:27;;;;;;;4.80;4.15;;;;;;;16.58;100.00;99596.79;1753324;80;21545;-59
2022/10/01 05:05:54;;;;;;;8.33;3.98;;;;;;;16.57;100.00;99606.53;1754065;80;21566;-59
2022/10/01 05:08:22;;;;;;;6.65;4.50;;;;;;;16.58;100.00;99606.08;1752280;80;21414;-59
2022/10/01 05:10:48;;;;;;;5.10;4.43;;;;;;;16.57;100.00;99609.67;1751241;80;21451;-59
2022/10/01 05:13:15;;;;;;;6.70;4.03;;;;;;;16.58;100.00;99611.39;1747311;80;20953;-59
2022/10/01 05:15:43;;;;;;;7.28;4.05;;;;;;;16.58;100.00;99611.39;1753202;80;21901;-59
2022/10/01 05:18:10;;;;;;;4.22;3.87;;;;;;;16.64;100.00;99611.80;1751813;80;21843;-59
2022/10/01 05:20:37;;;;;;;7.05;3.92;;;;;;;16.74;100.00;99614.22;1753756;80;21666;-59
2022/10/01 05:23:04;;;;;;;5.03;4.47;;;;;;;16.80;100.00;99614.72;1736902;80;21628;-59
2022/10/01 05:25:31;;;;;;;10.80;4.00;;;;;;;16.85;100.00;99613.97;1746637;80;21596;-59
2022/10/01 05:28:04;;;;;;;5.00;4.20;;;;;;;16.90;100.00;99615.84;1747094;80;20978;-59
2022/10/01 05:30:30;;;;;;;6.28;4.47;;;;;;;17.01;100.00;99619.05;1754494;80;21918;-59
2022/10/01 05:33:00;;;;;;;5.00;4.20;;;;;;;17.09;100.00;99620.71;1755576;80;27135;-59
2022/10/01 05:35:27;;;;;;;4.45;4.08;;;;;;;17.13;100.00;99624.36;1745376;80;21059;-59
2022/10/01 05:37:59;;;;;;;7.17;4.55;;;;;;;17.20;100.00;99619.48;1737225;80;21595;-59
2022/10/01 05:40:27;;;;;;;4.78;3.85;;;;;;;17.25;100.00;99613.82;1730618;80;21602;-59
2022/10/01 05:42:57;;;;;;;4.80;4.40;;;;;;;17.34;100.00;99610.52;1735467;80;21790;-59
2022/10/01 05:45:27;;;;;;;5.10;4.60;;;;;;;17.41;100.00;99606.95;1725120;82;21749;-60
2022/10/01 05:48:01;;;;;;;4.80;4.20;;;;;;;17.50;100.00;99607.13;1726539;80;20984;-59
2022/10/01 05:50:31;;;;;;;5.80;4.65;;;;;;;17.59;100.00;99608.26;1690988;82;21610;-59
2022/10/01 05:52:59;;;;;;;6.50;4.50;;;;;;;17.71;100.00;99601.22;1732597;80;21666;-59
2022/10/01 05:55:30;;;;;;;4.72;4.22;;;;;;;17.79;100.00;99602.83;1737550;82;25610;-59
2022/10/01 05:57:59;;;;;;;5.17;3.77;;;;;;;17.90;100.00;99605.58;1737027;80;21492;-59
2022/10/01 06:00:27;;;;;;;7.37;3.90;;;;;;;17.97;100.00;99603.78;1736936;80;21569;-60
2022/10/01 06:02:58;;;;;;;4.20;3.90;;;;;;;18.05;100.00;99602.75;1735637;82;21502;-59
2022/10/01 06:05:25;;;;;;;6.30;3.87;;;;;;;18.17;100.00;99595.16;1736551;81;21070;-60
2022/10/01 06:07:52;;;;;;;4.75;4.10;;;;;;;18.24;100.00;99588.91;1726868;80;21933;-60
2022/10/01 06:10:20;;;;;;;5.17;3.92;;;;;;;18.35;100.00;99599.59;1702937;82;21464;-60
2022/10/01 06:12:47;;;;;;;5.22;4.25;;;;;;;18.41;100.00;99595.13;1679379;83;21532;-60
2022/10/01 06:15:14;;;;;;;5.45;3.50;;;;;;;18.51;100.00;99598.42;1703592;83;21721;-60
2022/10/01 06:17:44;;;;;;;3.98;3.67;;;;;;;18.60;100.00;99591.06;1703106;83;21445;-59
2022/10/01 06:20:14;;;;;;;3.55;3.12;;;;;;;18.67;100.00;99594.95;1704151;83;22001;-60
2022/10/01 06:22:41;;;;;;;6.70;4.10;;;;;;;18.70;100.00;99597.36;1701654;83;21464;-60
2022/10/01 06:25:11;;;;;;;3.95;3.55;;;;;;;18.77;100.00;99593.26;1701077;82;21510;-60
2022/10/01 06:27:38;;;;;;;5.22;4.00;;;;;;;18.82;100.00;99601.78;1735055;80;21054;-60
2022/10/01 06:30:05;;;;;;;3.42;3.15;;;;;;;18.88;100.00;99600.45;1737464;81;21621;-61
2022/10/01 06:32:32;;;;;;;5.30;4.00;;;;;;;18.95;100.00;99599.02;1742006;80;21395;-62
2022/10/01 06:34:58;;;;;;;3.40;3.10;;;;;;;19.00;100.00;99599.48;1739406;80;21528;-62
2022/10/01 06:37:25;;;;;;;3.77;3.25;;;;;;;19.10;100.00;99608.08;1752470;80;21502;-61
2022/10/01 06:39:52;;;;;;;5.12;3.25;;;;;;;19.19;100.00;99597.56;1746606;80;21482;-62
2022/10/01 06:42:19;;;;;;;3.77;2.92;;;;;;;19.31;100.00;99598.40;1759192;80;21554;-61
2022/10/01 06:44:45;;;;;;;3.30;3.00;;;;;;;19.42;100.00;99587.72;1763302;80;21951;-63
2022/10/01 06:47:12;;;;;;;3.77;2.70;;;;;;;19.53;100.00;99588.66;1757337;80;21491;-62
2022/10/01 06:49:40;;;;;;;5.37;2.50;;;;;;;19.59;100.00;99588.16;1761085;80;21427;-62
2022/10/01 06:54:54;;;;;;;2.92;2.72;;;;;;;19.79;100.00;99593.23;1751536;80;21538;-63
2022/10/01 06:57:21;;;;;;;2.95;2.75;;;;;;;19.86;100.00;99587.77;1757336;80;21794;-63
2022/10/01 06:59:48;;;;;;;3.05;2.72;;;;;;;19.97;100.00;99584.22;1752565;80;21526;-64
2022/10/01 07:02:27;;;;;;;3.47;2.98;;;;;;;20.10;100.00;99586.69;1755077;80;21530;-62
2022/10/01 07:04:58;;;;;;;2.47;2.27;;;;;;;20.27;100.00;99572.80;1755405;80;21558;-63
2022/10/01 07:07:34;;;;;;;2.42;2.22;;;;;;;20.27;100.00;99572.80;1753231;80;21557;-61
2022/10/01 07:10:04;;;;;;;3.05;2.55;;;;;;;20.49;100.00;99565.13;1759869;80;21848;-62
2022/10/01 07:12:33;;;;;;;2.30;2.10;;;;;;;20.49;100.00;99565.13;1759830;80;21565;-62
2022/10/01 07:15:01;;;;;;;2.90;2.20;;;;;;;20.64;100.00;99570.17;1756116;80;21502;-63
2022/10/01 07:17:29;;;;;;;3.60;2.35;;;;;;;20.73;100.00;99574.72;1751263;80;21439;-63
2022/10/01 07:19:57;;;;;;;4.28;2.08;;;;;;;20.87;100.00;99570.84;1710466;82;21518;-61
2022/10/01 07:22:24;;;;;;;2.45;2.25;;;;;;;20.98;100.00;99571.63;1751347;80;21835;-63
2022/10/01 07:24:52;;;;;;;2.90;2.00;;;;;;;21.07;100.00;99577.13;1769988;80;21596;-63
2022/10/01 07:27:18;;;;;;;1.45;1.35;;;;;;;21.12;100.00;99575.75;1760868;80;21511;-62
2022/10/01 07:29:45;;;;;;;1.77;1.42;;;;;;;21.25;100.00;99577.33;1754100;80;21498;-62
2022/10/01 07:32:13;;;;;;;1.70;1.27;;;;;;;21.34;100.00;99565.34;1758645;80;20999;-63
2022/10/01 07:34:40;;;;;;;1.12;0.90;;;;;;;21.46;100.00;99567.94;1758395;80;21862;-65
2022/10/01 07:37:07;;;;;;;1.45;1.35;;;;;;;21.62;100.00;99564.22;1743569;80;21644;-63
2022/10/01 07:39:35;;;;;;;1.07;1.03;;;;;;;21.74;100.00;99564.96;1756398;80;21010;-63
2022/10/01 07:42:03;;;;;;;0.75;0.75;;;;;;;21.79;100.00;99558.67;1733938;80;21499;-63
2022/10/01 07:44:29;;;;;;;0.70;0.70;;;;;;;21.89;100.00;99558.20;1696455;84;21511;-62
2022/10/01 07:46:56;;;;;;;0.90;0.85;;;;;;;22.06;100.00;99558.00;1748065;80;21934;-63
2022/10/01 07:49:24;;;;;;;1.12;1.00;;;;;;;22.06;100.00;99558.00;1748778;80;21552;-62
2022/10/01 07:51:53;;;;;;;0.80;0.80;;;;;;;22.04;100.00;99553.75;1747731;80;21593;-64
2022/10/01 07:54:23;;;;;;;0.85;0.85;;;;;;;22.00;100.00;99556.36;1751533;80;21570;-63
2022/10/01 07:56:54;;;;;;;1.05;1.02;;;;;;;22.00;100.00;99556.36;1757498;80;21424;-64
2022/10/01 07:59:19;;;;;;;0.98;0.98;;;;;;;21.96;100.00;99554.45;1735866;80;21479;-63
2022/10/01 08:01:52;;;;;;;3.40;0.98;;;;;;;21.94;100.00;99541.24;1739028;80;21499;-62
2022/10/01 08:07:06;;;;;;;2.30;1.07;;;;;;;22.15;100.00;99539.74;1748714;80;21593;-63
2022/10/01 08:09:34;;;;;;;1.20;0.90;;;;;;;22.15;100.00;99539.74;1748738;80;21567;-63
2022/10/01 08:12:01;;;;;;;1.40;1.15;;;;;;;22.28;99.45;99544.84;1751754;80;22116;-64
2022/10/01 08:14:29;;;;;;;1.22;1.20;;;;;;;22.32;98.96;99549.39;1749831;80;21551;-63
2022/10/01 08:16:56;;;;;;;1.00;1.00;;;;;;;22.29;99.13;99545.68;1759540;80;21499;-63
2022/10/01 08:19:23;;;;;;;1.27;1.10;;;;;;;22.26;98.87;99546.79;1745321;80;21727;-62
2022/10/01 08:21:50;;;;;;;1.37;1.27;;;;;;;22.24;98.75;99536.69;1753422;80;21432;-62
2022/10/01 08:24:16;;;;;;;1.10;1.00;;;;;;;22.18;97.62;99531.91;1750428;80;21850;-61
2022/10/01 08:26:43;;;;;;;2.40;1.12;;;;;;;22.24;98.60;99528.65;1741148;80;21593;-62
2022/10/01 08:29:10;;;;;;;1.40;1.30;;;;;;;22.27;97.41;99526.23;1748635;80;21540;-64
2022/10/01 08:31:38;;;;;;;1.22;1.05;;;;;;;22.29;96.85;99531.78;1720215;82;27021;-63
2022/10/01 08:34:04;;;;;;;2.52;1.20;;;;;;;22.36;97.83;99526.71;1713425;82;21550;-62
2022/10/01 08:36:34;;;;;;;1.83;1.10;;;;;;;22.51;96.72;99527.10;1754829;80;21924;-65
2022/10/01 08:39:01;;;;;;;1.40;1.02;;;;;;;22.67;96.80;99522.45;1746064;80;21407;-62
2022/10/01 08:41:45;;;;;;;1.05;1.00;;;;;;;22.84;96.08;99531.56;1753027;80;21535;-63
2022/10/01 08:44:22;;;;;;;4.00;0.75;;;;;;;23.01;93.86;99530.77;1754162;80;21093;-62
2022/10/01 08:46:49;;;;;;;0.85;0.70;;;;;;;23.13;91.59;99527.42;1746919;80;21412;-65
2022/10/01 08:49:21;;;;;;;1.00;0.90;;;;;;;23.23;90.57;99524.21;1748422;80;21530;-63
2022/10/01 08:52:09;;;;;;;0.62;0.60;;;;;;;23.22;88.65;99527.87;1740771;80;21590;-64
2022/10/01 08:55:03;;;;;;;0.60;0.60;;;;;;;23.15;88.30;99522.78;1691574;80;21684;-62
2022/10/01 08:57:34;;;;;;;0.70;0.70;;;;;;;23.06;87.79;99538.42;1759188;80;21602;-62
2022/10/01 09:00:06;;;;;;;2.02;0.88;;;;;;;22.89;88.31;99530.13;1752231;80;21574;-62
2022/10/01 09:02:36;;;;;;;0.90;0.80;;;;;;;22.84;89.45;99533.74;1745745;80;21809;-63
2022/10/01 09:05:24;;;;;;;2.55;0.75;;;;;;;22.87;89.03;99523.23;1752110;80;21411;-62
2022/10/01 09:08:05;;;;;;;0.50;0.50;;;;;;;22.94;88.10;99532.36;1745078;80;20987;-63
2022/10/01 09:10:41;;;;;;;0.60;0.60;;;;;;;23.03;87.63;99525.27;1745167;80;21554;-63
2022/10/01 09:13:38;;;;;;;1.17;0.60;;;;;;;23.16;87.32;99533.84;1748562;80;21583;-63
2022/10/01 09:16:25;;;;;;;0.90;0.90;;;;;;;23.23;86.22;99529.58;1718001;82;21790;-61
2022/10/01 09:19:26;;;;;;;1.67;0.98;;;;;;;23.24;85.75;99535.77;1746347;80;21444;-61
2022/10/01 09:21:58;;;;;;;2.00;0.80;;;;;;;23.25;85.55;99528.92;1748446;80;20962;-62
2022/10/01 09:25:03;;;;;;;2.80;0.78;;;;;;;23.22;84.83;99529.21;1756403;80;21558;-62
2022/10/01 09:27:30;;;;;;;1.10;0.60;;;;;;;23.35;86.41;99521.32;1742391;80;21073;-63
2022/10/01 09:30:08;;;;;;;2.23;0.77;;;;;;;23.45;85.74;99531.48;1756014;80;21989;-62
2022/10/01 09:32:52;;;;;;;0.80;0.80;;;;;;;23.52;85.26;99534.74;1751109;80;21554;-62
2022/10/01 09:35:43;;;;;;;1.00;0.78;;;;;;;23.65;84.37;99540.25;1746499;80;20962;-61
2022/10/01 09:38:38;;;;;;;1.22;1.12;;;;;;;23.80;84.24;99541.44;1745936;80;21593;-61
2022/10/01 09:41:09;;;;;;;1.15;0.72;;;;;;;23.82;82.66;99533.23;1752158;80;21386;-62
2022/10/01 09:43:39;;;;;;;1.57;0.72;;;;;;;23.85;82.27;99528.41;1751844;80;21854;-62
2022/10/01 09:46:14;;;;;;;1.15;0.82;;;;;;;23.82;81.98;99538.09;1748233;80;22171;-62
2022/10/01 09:48:58;;;;;;;1.77;0.93;;;;;;;23.80;82.09;99533.89;1741451;80;21554;-62
2022/10/01 09:51:35;;;;;;;4.33;0.90;;;;;;;23.84;82.25;99520.50;1749886;80;21541;-63
2022/10/01 09:54:14;;;;;;;0.98;0.82;;;;;;;23.86;82.20;99526.55;1745835;80;21503;-61
2022/10/01 09:57:07;;;;;;;1.45;0.90;;;;;;;23.90;81.40;99530.13;1753333;80;21479;-62
2022/10/01 10:00:04;;;;;;;1.07;0.80;;;;;;;23.89;81.27;99524.91;1747742;80;21589;-61
2022/10/01 10:02:34;;;;;;;2.30;0.88;;;;;;;23.82;81.64;99523.84;1748083;80;20995;-63
2022/10/01 10:05:03;;;;;;;1.05;1.00;;;;;;;23.76;83.03;99524.43;1750403;80;21459;-62
2022/10/01 10:07:33;;;;;;;0.78;0.78;;;;;;;23.80;82.48;99525.84;1754634;80;21550;-62
2022/10/01 10:10:19;;;;;;;1.30;0.90;;;;;;;23.88;82.41;99524.55;1754868;80;21262;-61
2022/10/01 10:12:46;;;;;;;3.30;0.90;;;;;;;23.97;82.29;99537.05;1750189;80;21417;-61
2022/10/01 10:15:18;;;;;;;0.78;0.75;;;;;;;24.13;81.20;99527.45;1745203;80;21614;-61
2022/10/01 10:17:50;;;;;;;0.80;0.70;;;;;;;24.33;80.96;99520.88;1746392;80;21427;-61
2022/10/01 10:20:38;;;;;;;1.85;1.00;;;;;;;24.40;78.87;99533.20;1703920;82;21533;-63
2022/10/01 10:23:17;;;;;;;1.70;0.80;;;;;;;24.46;79.09;99531.22;1717069;82;21812;-62
2022/10/01 10:26:02;;;;;;;0.82;0.80;;;;;;;24.42;77.71;99524.48;1742833;80;21613;-63
2022/10/01 10:28:38;;;;;;;0.82;0.62;;;;;;;24.52;78.48;99533.81;1748249;80;21538;-62
2022/10/01 10:31:10;;;;;;;0.70;0.70;;;;;;;24.59;78.71;99516.05;1739982;80;21550;-63
2022/10/01 10:33:52;;;;;;;0.93;0.80;;;;;;;24.67;78.20;99507.52;1739431;80;21615;-62
2022/10/01 10:36:19;;;;;;;1.90;0.70;;;;;;;24.76;76.79;99509.76;1717540;80;21777;-62
2022/10/01 10:38:52;;;;;;;0.95;0.95;;;;;;;24.88;75.88;99507.63;1752522;80;21448;-62
2022/10/01 10:41:20;;;;;;;0.80;0.80;;;;;;;24.84;75.45;99499.03;1749197;80;21589;-62
2022/10/01 10:43:47;;;;;;;3.33;0.90;;;;;;;24.82;76.07;99501.04;1751766;80;21561;-62
2022/10/01 10:46:35;;;;;;;1.10;0.98;;;;;;;24.78;75.64;99499.69;1748633;80;21548;-62
2022/10/01 10:49:25;;;;;;;1.12;0.82;;;;;;;24.65;74.96;99500.11;1754760;80;21632;-61
2022/10/01 10:51:53;;;;;;;0.80;0.80;;;;;;;24.52;75.47;99489.47;1754242;80;21577;-63
2022/10/01 10:54:31;;;;;;;1.95;1.00;;;;;;;24.40;75.45;99488.88;1752644;80;21390;-62
2022/10/01 10:57:02;;;;;;;0.93;0.65;;;;;;;24.23;75.11;99491.95;1744168;80;21108;-62
2022/10/01 10:59:30;;;;;;;2.90;0.88;;;;;;;24.12;75.73;99493.55;1755264;80;21052;-61
2022/10/01 11:02:00;;;;;;;0.72;0.72;;;;;;;24.04;76.59;99491.14;1754214;80;21761;-62
2022/10/01 11:04:43;;;;;;;1.05;0.90;;;;;;;23.96;77.12;99488.40;1753596;80;21507;-62
2022/10/01 11:07:12;;;;;;;0.85;0.78;;;;;;;23.84;77.19;99492.31;1755027;80;21577;-62
2022/10/01 11:10:16;;;;;;;0.95;0.85;;;;;;;23.77;77.74;99479.12;1755007;80;21535;-62
2022/10/01 11:13:11;;;;;;;2.72;0.88;;;;;;;23.57;77.92;99486.00;1753864;80;21596;-62
2022/10/01 11:16:02;;;;;;;2.22;1.27;;;;;;;23.57;77.92;99486.00;1754052;80;21792;-61
2022/10/01 11:18:54;;;;;;;2.65;1.60;;;;;;;23.50;78.78;99476.88;1756842;80;21632;-61
2022/10/01 11:21:53;;;;;;;2.50;1.00;;;;;;;23.46;79.07;99479.02;1706764;80;20946;-60
2022/10/01 11:24:57;;;;;;;3.05;1.12;;;;;;;23.45;78.89;99471.98;1722852;80;21130;-60
2022/10/01 11:27:42;;;;;;;3.55;1.20;;;;;;;23.34;79.00;99480.25;1755356;80;21487;-61
2022/10/01 11:30:20;;;;;;;2.17;0.98;;;;;;;23.25;79.78;99476.63;1737164;80;21551;-60
2022/10/01 11:33:04;;;;;;;1.12;0.80;;;;;;;23.10;79.94;99470.09;1751411;80;21050;-62
2022/10/01 11:35:54;;;;;;;3.02;0.90;;;;;;;;;;1758971;80;21558;-60
2022/10/01 11:38:36;;;;;;;1.25;1.10;;;;;;;23.04;80.03;99465.34;1742716;80;21423;-61
2022/10/01 11:41:21;;;;;;;2.40;1.10;;;;;;;22.98;80.30;99468.09;1734921;80;21005;-61
2022/10/01 11:43:54;;;;;;;1.00;0.88;;;;;;;22.90;80.79;99468.81;1730267;80;21838;-61
2022/10/01 11:46:42;;;;;;;2.55;1.12;;;;;;;22.83;81.44;99461.52;1738733;80;21434;-63
2022/10/01 11:49:27;;;;;;;;;;;;;;;22.81;81.70;99467.05;1735654;80;21075;-61
2022/10/01 11:52:14;;;;;;;1.17;1.02;;;;;;;22.78;81.43;99466.50;1727207;81;20419;-61
2022/10/01 11:54:55;;;;;;;1.05;0.95;;;;;;;22.76;81.71;99465.30;1730662;80;21115;-61
2022/10/01 12:00:09;;;;;;;3.70;1.17;;;;;;;22.70;83.04;99454.68;1736714;80;21671;-61
2022/10/01 12:02:44;;;;;;;2.27;1.30;;;;;;;22.73;83.44;99449.51;1734902;81;21458;-60